Time;durP1;ratioP1;P1;durP2;ratioP2;P2;SDS_P1;SDS_P2;PMS_P1;PMS_P2;Temp;Humidity;BMP_temperature;BMP_pressure;BME280_temperature;BME280_humidity;BME280_pressure;Samples;Min_cycle;Max_cycle;Signal;HPM_P1;HPM_P2
2023/05/03 00:01:08;;;;;;;3.43;3.10;;;19.90;89.50;;;;;;4995180;28;20213;-81
2023/05/03 00:03:36;;;;;;;3.50;3.20;;;19.90;89.80;;;;;;4993948;28;20239;-81
2023/05/03 00:06:15;;;;;;;3.57;3.17;;;19.90;89.70;;;;;;4994938;28;20445;-81
2023/05/03 00:08:42;;;;;;;4.17;3.57;;;19.80;90.00;;;;;;4995392;28;20957;-90
2023/05/03 00:11:09;;;;;;;3.93;3.40;;;19.70;90.20;;;;;;4995233;28;20445;-88
2023/05/03 00:13:35;;;;;;;3.80;3.20;;;19.70;90.20;;;;;;4996384;28;20416;-81
2023/05/03 00:16:00;;;;;;;4.33;3.30;;;19.70;90.20;;;;;;4996042;28;20428;-81
2023/05/03 00:18:26;;;;;;;6.63;3.70;;;19.60;90.30;;;;;;4996220;28;20972;-81
2023/05/03 00:20:54;;;;;;;3.33;3.03;;;19.60;90.60;;;;;;4996035;28;20591;-81
2023/05/03 00:23:20;;;;;;;5.77;3.40;;;19.60;90.40;;;;;;4994849;28;20860;-81
2023/05/03 00:25:47;;;;;;;4.23;3.80;;;19.60;90.30;;;;;;4996126;28;21058;-89
2023/05/03 00:28:12;;;;;;;4.53;4.13;;;19.60;90.40;;;;;;4997287;28;20422;-91
2023/05/03 00:30:38;;;;;;;6.67;3.80;;;19.60;90.60;;;;;;4997167;28;20481;-81
2023/05/03 00:33:03;;;;;;;4.33;3.80;;;19.50;90.90;;;;;;4995895;28;20697;-81
2023/05/03 00:35:29;;;;;;;3.93;3.00;;;19.50;90.80;;;;;;4996666;28;20678;-91
2023/05/03 00:37:55;;;;;;;5.63;3.73;;;19.40;90.90;;;;;;4995989;28;20275;-81
2023/05/03 00:40:21;;;;;;;3.90;3.43;;;19.40;91.10;;;;;;4995794;28;20197;-91
2023/05/03 00:42:46;;;;;;;4.53;3.47;;;19.30;91.30;;;;;;4995795;28;20188;-81
2023/05/03 00:45:12;;;;;;;5.63;4.37;;;19.30;91.50;;;;;;4994817;28;20689;-85
2023/05/03 00:47:38;;;;;;;4.77;4.00;;;19.30;91.70;;;;;;4994553;28;20264;-90
2023/05/03 00:50:06;;;;;;;4.90;4.27;;;19.20;91.90;;;;;;4994208;28;20202;-89
2023/05/03 00:52:31;;;;;;;8.60;4.20;;;19.20;92.00;;;;;;4994416;28;20413;-91
2023/05/03 00:54:58;;;;;;;4.13;3.73;;;19.30;92.20;;;;;;4994072;28;20435;-90
2023/05/03 00:57:27;;;;;;;5.03;4.40;;;19.30;92.40;;;;;;4995469;28;20578;-89
2023/05/03 00:59:53;;;;;;;4.90;4.50;;;19.20;92.50;;;;;;5010538;28;20501;-81
2023/05/03 01:02:20;;;;;;;5.03;4.40;;;19.30;92.70;;;;;;4994415;28;20414;-80
2023/05/03 01:04:46;;;;;;;5.27;4.77;;;19.20;92.70;;;;;;4994298;28;20557;-90
2023/05/03 01:07:27;;;;;;;6.90;4.53;;;19.10;92.80;;;;;;4993998;28;20445;-85
2023/05/03 01:10:11;;;;;;;5.50;4.70;;;19.10;93.10;;;;;;4993809;28;20196;-91
2023/05/03 01:12:47;;;;;;;5.93;5.00;;;19.10;92.90;;;;;;4994149;28;20503;-90
2023/05/03 01:15:23;;;;;;;5.63;5.03;;;19.10;92.70;;;;;;4993657;28;20449;-81
2023/05/03 01:18:00;;;;;;;5.23;4.73;;;19.10;93.20;;;;;;4993950;28;20478;-80
2023/05/03 01:20:29;;;;;;;5.47;4.97;;;19.10;93.10;;;;;;4995162;28;20438;-90
2023/05/03 01:22:58;;;;;;;6.80;5.13;;;19.10;93.20;;;;;;4994812;28;20442;-90
2023/05/03 01:25:25;;;;;;;5.80;4.80;;;19.00;93.30;;;;;;4995682;28;20967;-80
2023/05/03 01:27:51;;;;;;;7.10;5.33;;;19.00;93.50;;;;;;4994918;28;20417;-88
2023/05/03 01:30:19;;;;;;;6.57;4.67;;;19.00;93.50;;;;;;4995944;28;20462;-85
2023/05/03 01:33:03;;;;;;;5.17;4.67;;;19.00;93.50;;;;;;4993883;28;20778;-80
2023/05/03 01:35:37;;;;;;;7.20;5.17;;;18.90;93.60;;;;;;4993789;28;20451;-81
2023/05/03 01:38:04;;;;;;;6.17;5.57;;;18.90;93.90;;;;;;4994766;28;20473;-81
2023/05/03 01:40:34;;;;;;;6.10;5.50;;;18.90;94.00;;;;;;4994821;28;20422;-81
2023/05/03 01:43:02;;;;;;;5.43;4.93;;;18.80;94.10;;;;;;4994803;28;20434;-84
2023/05/03 01:45:29;;;;;;;5.83;5.30;;;18.80;94.20;;;;;;4993573;28;20870;-80
2023/05/03 01:47:56;;;;;;;6.10;5.03;;;18.80;94.20;;;;;;4994447;28;20424;-90
2023/05/03 01:50:22;;;;;;;5.80;5.30;;;18.70;94.20;;;;;;4993394;28;20445;-81
2023/05/03 01:52:51;;;;;;;7.00;5.30;;;18.70;94.30;;;;;;4993538;28;20414;-90
2023/05/03 01:55:17;;;;;;;7.40;6.13;;;18.70;94.40;;;;;;4993946;28;20456;-89
2023/05/03 01:57:43;;;;;;;6.10;5.50;;;18.60;94.50;;;;;;4993225;28;20461;-80
2023/05/03 02:00:09;;;;;;;8.40;5.40;;;18.70;94.60;;;;;;4993315;28;20440;-90
2023/05/03 02:02:35;;;;;;;6.23;5.73;;;18.60;94.60;;;;;;4994270;28;20191;-81
2023/05/03 02:05:01;;;;;;;6.70;5.77;;;18.60;94.60;;;;;;4994340;28;20465;-90
2023/05/03 02:07:27;;;;;;;6.67;5.90;;;18.60;94.70;;;;;;4993649;28;20660;-81
2023/05/03 02:09:52;;;;;;;6.40;5.80;;;18.60;94.60;;;;;;4993735;28;20524;-80
2023/05/03 02:12:18;;;;;;;7.90;6.40;;;18.50;94.80;;;;;;4997600;28;20231;-88
2023/05/03 02:14:44;;;;;;;7.53;5.73;;;18.50;94.80;;;;;;4993359;28;20180;-90
2023/05/03 02:17:10;;;;;;;9.70;6.03;;;18.40;94.80;;;;;;4994444;28;20469;-87
2023/05/03 02:19:36;;;;;;;8.70;5.87;;;18.40;94.80;;;;;;4993694;28;20315;-81
2023/05/03 02:22:02;;;;;;;6.03;5.43;;;18.40;94.90;;;;;;4994377;28;20497;-90
2023/05/03 02:24:28;;;;;;;6.30;5.63;;;18.40;94.90;;;;;;4993420;28;20226;-90
2023/05/03 02:26:54;;;;;;;7.83;4.83;;;18.40;94.90;;;;;;4995570;28;20978;-89
2023/05/03 02:29:20;;;;;;;9.27;6.57;;;18.30;95.00;;;;;;4998480;28;20409;-81
2023/05/03 02:31:45;;;;;;;5.30;4.90;;;18.30;95.10;;;;;;4997010;28;20442;-89
2023/05/03 02:34:11;;;;;;;6.43;5.77;;;18.20;95.10;;;;;;4997217;28;20651;-89
2023/05/03 02:36:38;;;;;;;5.73;5.23;;;18.20;95.10;;;;;;4996915;28;20673;-80
2023/05/03 02:39:04;;;;;;;6.67;5.87;;;18.20;95.20;;;;;;4996747;28;20271;-81
2023/05/03 02:41:29;;;;;;;5.97;5.47;;;18.20;95.30;;;;;;4997998;28;20484;-91
2023/05/03 02:43:55;;;;;;;6.97;5.47;;;18.10;95.30;;;;;;4996935;28;20512;-90
2023/05/03 02:46:20;;;;;;;6.03;5.43;;;18.10;95.40;;;;;;4997933;28;20195;-91
2023/05/03 02:48:46;;;;;;;7.43;6.73;;;18.00;95.50;;;;;;4998109;28;20174;-80
2023/05/03 02:51:12;;;;;;;6.27;5.67;;;18.00;95.50;;;;;;4997715;28;20258;-90
2023/05/03 02:53:38;;;;;;;6.67;5.53;;;17.90;95.50;;;;;;4996637;28;20182;-80
2023/05/03 02:56:04;;;;;;;8.67;6.10;;;17.90;95.60;;;;;;4997349;28;20520;-90
2023/05/03 02:58:30;;;;;;;6.80;5.60;;;17.90;95.70;;;;;;4997991;28;20204;-90
2023/05/03 03:00:56;;;;;;;7.50;6.80;;;17.80;95.80;;;;;;4997613;28;20449;-90
2023/05/03 03:03:21;;;;;;;7.03;5.63;;;18.00;95.30;;;;;;4997397;28;20222;-80
2023/05/03 03:05:47;;;;;;;6.40;5.70;;;18.10;95.50;;;;;;4996927;28;20207;-83
2023/05/03 03:08:13;;;;;;;8.30;5.17;;;18.20;95.30;;;;;;4996409;28;20191;-90
2023/05/03 03:10:39;;;;;;;5.93;5.33;;;18.20;95.20;;;;;;4996188;28;20580;-89
2023/05/03 03:13:04;;;;;;;7.00;5.50;;;18.20;95.00;;;;;;4998139;28;20259;-80
2023/05/03 03:15:30;;;;;;;6.90;5.23;;;18.20;95.00;;;;;;4997571;28;20469;-90
2023/05/03 03:17:57;;;;;;;8.63;5.60;;;18.20;94.90;;;;;;4997207;28;20306;-90
2023/05/03 03:20:23;;;;;;;7.40;5.10;;;18.20;94.80;;;;;;4997738;28;20286;-87
2023/05/03 03:22:49;;;;;;;7.73;5.57;;;18.30;94.70;;;;;;4997683;28;20509;-81
2023/05/03 03:25:14;;;;;;;5.77;5.20;;;18.30;94.60;;;;;;4996241;28;20537;-90
2023/05/03 03:27:40;;;;;;;7.47;5.63;;;18.30;94.60;;;;;;4995982;28;20172;-90
2023/05/03 03:30:08;;;;;;;6.90;5.30;;;18.20;94.60;;;;;;4995715;28;20425;-80
2023/05/03 03:32:34;;;;;;;8.60;6.10;;;18.10;94.50;;;;;;4995615;28;20432;-90
2023/05/03 03:35:00;;;;;;;7.77;5.03;;;18.10;94.50;;;;;;4995901;28;20425;-80
2023/05/03 03:37:26;;;;;;;12.47;8.10;;;18.00;94.70;;;;;;4996870;28;20449;-89
2023/05/03 03:39:52;;;;;;;7.97;5.43;;;17.70;95.10;;;;;;4995730;28;20422;-81
2023/05/03 03:42:19;;;;;;;7.50;5.87;;;17.60;95.60;;;;;;4996982;28;20634;-89
2023/05/03 03:44:45;;;;;;;6.53;5.67;;;17.60;95.20;;;;;;4995524;28;20433;-80
2023/05/03 03:47:10;;;;;;;7.97;5.60;;;17.70;95.10;;;;;;4996685;28;20541;-87
2023/05/03 03:49:36;;;;;;;9.20;5.47;;;17.60;95.50;;;;;;4997186;28;20222;-80
2023/05/03 03:52:02;;;;;;;6.57;5.90;;;17.60;95.40;;;;;;4998340;28;20258;-81
2023/05/03 03:54:27;;;;;;;5.60;4.90;;;17.60;95.30;;;;;;4997311;28;20193;-80
2023/05/03 03:56:53;;;;;;;6.47;5.83;;;17.60;95.30;;;;;;4995228;28;20632;-90
2023/05/03 03:59:19;;;;;;;7.57;5.23;;;17.70;95.00;;;;;;4995473;28;20191;-80
2023/05/03 04:01:45;;;;;;;9.20;5.80;;;17.80;94.70;;;;;;4996187;28;20266;-81
2023/05/03 04:04:10;;;;;;;6.43;5.47;;;17.80;94.60;;;;;;4995077;28;20759;-80
2023/05/03 04:06:36;;;;;;;11.83;6.50;;;17.80;94.60;;;;;;4996303;28;20425;-90
2023/05/03 04:09:02;;;;;;;7.70;5.40;;;17.80;94.70;;;;;;4995876;28;20181;-81
2023/05/03 04:11:27;;;;;;;6.63;5.20;;;17.80;94.50;;;;;;4995766;28;20950;-89
2023/05/03 04:13:53;;;;;;;7.37;5.03;;;17.90;93.70;;;;;;4997409;28;20180;-90
2023/05/03 04:16:19;;;;;;;7.47;5.67;;;17.90;94.40;;;;;;4997129;28;20200;-90
2023/05/03 04:18:44;;;;;;;9.37;5.73;;;18.00;94.20;;;;;;4994511;28;20224;-90
2023/05/03 04:21:10;;;;;;;5.47;4.97;;;18.10;94.20;;;;;;4995943;28;20202;-80
2023/05/03 04:23:36;;;;;;;7.43;5.33;;;18.30;94.10;;;;;;4996455;28;20230;-91
2023/05/03 04:26:01;;;;;;;6.80;5.17;;;18.40;93.90;;;;;;4995355;28;20230;-80
2023/05/03 04:28:28;;;;;;;5.83;5.27;;;18.30;94.10;;;;;;4995377;28;20821;-89
2023/05/03 04:30:54;;;;;;;8.20;5.20;;;18.30;94.00;;;;;;4995752;28;20700;-89
2023/05/03 04:33:20;;;;;;;5.87;5.20;;;18.40;94.00;;;;;;4992311;28;20434;-80
2023/05/03 04:35:50;;;;;;;6.20;5.30;;;18.40;94.10;;;;;;4993209;28;20282;-80
2023/05/03 04:38:17;;;;;;;6.70;6.00;;;18.50;94.00;;;;;;4993131;28;20481;-81
2023/05/03 04:40:43;;;;;;;9.10;6.80;;;18.60;93.90;;;;;;4994393;28;20422;-89
2023/05/03 04:43:08;;;;;;;6.23;5.07;;;18.70;93.80;;;;;;5010339;28;20524;-88
2023/05/03 04:45:34;;;;;;;6.03;5.10;;;18.80;94.10;;;;;;4995471;28;20196;-88
2023/05/03 04:48:00;;;;;;;7.63;5.47;;;18.80;93.80;;;;;;4995178;28;20175;-90
2023/05/03 04:50:26;;;;;;;6.50;5.63;;;18.90;93.70;;;;;;4993945;28;20489;-89
2023/05/03 04:52:51;;;;;;;5.37;4.87;;;18.90;93.80;;;;;;5010472;28;20447;-81
2023/05/03 04:55:17;;;;;;;5.90;5.20;;;18.90;93.60;;;;;;4992483;28;20197;-88
2023/05/03 04:57:43;;;;;;;11.10;4.70;;;18.90;93.80;;;;;;4980422;28;20215;-81
2023/05/03 05:00:10;;;;;;;7.83;5.27;;;19.00;93.80;;;;;;4971937;28;20508;-89
2023/05/03 05:02:36;;;;;;;10.10;5.40;;;18.90;93.90;;;;;;4988783;28;20242;-85
2023/05/03 05:05:02;;;;;;;6.10;4.70;;;18.90;94.20;;;;;;4991618;28;20465;-80
2023/05/03 05:07:28;;;;;;;8.37;5.67;;;18.80;94.40;;;;;;4991262;28;20839;-80
2023/05/03 05:09:54;;;;;;;5.00;4.50;;;18.80;94.50;;;;;;4991516;28;20434;-89
2023/05/03 05:12:20;;;;;;;6.93;5.17;;;18.80;94.40;;;;;;4991409;28;20472;-83
2023/05/03 05:14:45;;;;;;;5.90;5.40;;;18.80;94.40;;;;;;4990613;28;20184;-80
2023/05/03 05:17:11;;;;;;;6.87;5.20;;;18.70;94.80;;;;;;4991754;28;20519;-80
2023/05/03 05:19:37;;;;;;;7.07;5.13;;;18.70;94.60;;;;;;4992130;28;20188;-80
2023/05/03 05:22:02;;;;;;;5.33;4.93;;;18.70;94.80;;;;;;5010320;28;20260;-80
2023/05/03 05:24:28;;;;;;;7.97;5.37;;;18.70;95.00;;;;;;5009630;28;20179;-89
2023/05/03 05:26:53;;;;;;;5.93;5.30;;;18.70;94.90;;;;;;4984101;28;20258;-89
2023/05/03 05:29:19;;;;;;;7.70;4.50;;;18.80;94.90;;;;;;4990511;28;20188;-91
2023/05/03 05:31:45;;;;;;;271.13;129.53;;;18.80;94.90;;;;;;4986247;28;20217;-80
2023/05/03 05:34:10;;;;;;;8.80;5.63;;;18.80;95.00;;;;;;4977329;28;20194;-89
2023/05/03 05:36:36;;;;;;;8.30;5.10;;;18.80;94.40;;;;;;4991324;28;20232;-90
2023/05/03 05:39:02;;;;;;;8.97;5.70;;;18.90;94.30;;;;;;4993048;28;20656;-89
2023/05/03 05:41:28;;;;;;;10.30;4.70;;;18.90;94.50;;;;;;5007950;28;20204;-90
2023/05/03 05:43:53;;;;;;;6.63;4.90;;;19.00;95.00;;;;;;4986343;28;20446;-80
2023/05/03 05:46:22;;;;;;;6.43;4.90;;;19.00;94.50;;;;;;4993986;28;20686;-89
2023/05/03 05:48:50;;;;;;;5.10;4.13;;;19.00;94.50;;;;;;4986516;28;20197;-80
2023/05/03 05:51:15;;;;;;;4.63;4.03;;;19.10;93.90;;;;;;4986426;28;20947;-80
2023/05/03 05:53:42;;;;;;;5.17;4.70;;;19.10;93.60;;;;;;4988178;28;20426;-80
2023/05/03 05:56:07;;;;;;;11.77;6.80;;;19.10;94.10;;;;;;4992090;28;20484;-80
2023/05/03 05:58:36;;;;;;;15.77;10.90;;;19.20;93.80;;;;;;4981216;28;20617;-89
2023/05/03 06:01:02;;;;;;;6.83;6.13;;;19.20;93.30;;;;;;4989382;28;20210;-90
2023/05/03 06:03:28;;;;;;;5.17;4.60;;;19.30;93.10;;;;;;4978306;28;20635;-81
2023/05/03 06:05:54;;;;;;;7.30;5.23;;;19.40;93.20;;;;;;4981685;28;20454;-81
2023/05/03 06:08:20;;;;;;;6.73;4.40;;;19.50;93.20;;;;;;4978943;28;20517;-80
2023/05/03 06:10:45;;;;;;;5.23;4.73;;;19.60;93.20;;;;;;4991793;28;20559;-80
2023/05/03 06:13:11;;;;;;;6.30;4.40;;;19.70;93.30;;;;;;4985759;28;20178;-90
2023/05/03 06:15:37;;;;;;;4.90;4.20;;;19.80;92.60;;;;;;4972982;28;20217;-80
2023/05/03 06:18:03;;;;;;;6.60;4.10;;;19.90;92.40;;;;;;4973759;28;20209;-80
2023/05/03 06:20:29;;;;;;;8.03;4.77;;;20.00;91.90;;;;;;4973733;28;20288;-89
2023/05/03 06:22:54;;;;;;;8.10;4.03;;;20.00;91.60;;;;;;4979888;28;20523;-79
2023/05/03 06:25:20;;;;;;;7.00;4.30;;;20.10;91.60;;;;;;4985005;28;20210;-80
2023/05/03 06:27:46;;;;;;;4.57;4.10;;;20.20;91.20;;;;;;4984487;28;20265;-88
2023/05/03 06:30:12;;;;;;;4.70;4.30;;;20.20;91.40;;;;;;4990695;28;20212;-80
2023/05/03 06:32:39;;;;;;;5.13;4.47;;;20.20;91.30;;;;;;4986464;28;20448;-80
2023/05/03 06:35:06;;;;;;;5.43;3.80;;;20.20;91.40;;;;;;4975466;28;20539;-88
2023/05/03 06:37:32;;;;;;;5.30;4.10;;;20.30;91.10;;;;;;4961214;28;20477;-90
2023/05/03 06:39:57;;;;;;;7.30;4.17;;;20.30;90.70;;;;;;4996241;28;20566;-89
2023/05/03 06:42:23;;;;;;;4.47;4.07;;;20.30;90.70;;;;;;4995881;28;20187;-88
2023/05/03 06:44:49;;;;;;;5.13;3.97;;;20.40;90.90;;;;;;4981860;28;20197;-90
2023/05/03 06:47:15;;;;;;;4.97;4.23;;;20.40;90.90;;;;;;4995653;28;20285;-88
2023/05/03 06:49:41;;;;;;;5.00;4.30;;;20.40;90.90;;;;;;4994961;28;20437;-89
2023/05/03 06:52:07;;;;;;;4.83;4.33;;;20.50;90.90;;;;;;4994002;28;20187;-80
2023/05/03 06:54:32;;;;;;;4.37;3.53;;;20.60;91.00;;;;;;4989845;28;20463;-88
2023/05/03 06:56:58;;;;;;;6.43;4.30;;;20.60;91.10;;;;;;4973424;28;20219;-80
2023/05/03 06:59:25;;;;;;;6.93;4.07;;;20.70;90.90;;;;;;4976191;28;20246;-90
2023/05/03 07:01:51;;;;;;;5.60;3.97;;;20.70;90.30;;;;;;4981273;28;20647;-81
2023/05/03 07:04:16;;;;;;;5.43;3.00;;;20.80;90.40;;;;;;4993645;28;20590;-89
2023/05/03 07:06:42;;;;;;;6.13;4.07;;;20.90;90.80;;;;;;4978587;28;20291;-89
2023/05/03 07:09:09;;;;;;;5.53;3.40;;;21.00;90.90;;;;;;4999444;28;20186;-90
2023/05/03 07:11:38;;;;;;;6.83;4.30;;;21.10;90.30;;;;;;5014678;28;20207;-80
2023/05/03 07:14:03;;;;;;;5.07;3.87;;;21.10;90.10;;;;;;5008146;28;20427;-89
2023/05/03 07:16:29;;;;;;;5.97;3.77;;;21.10;90.40;;;;;;4996693;28;20814;-90
2023/05/03 07:18:55;;;;;;;4.67;3.80;;;21.10;89.30;;;;;;4995375;28;20623;-80
2023/05/03 07:21:20;;;;;;;4.63;3.77;;;21.00;89.50;;;;;;5011297;28;20203;-90
2023/05/03 07:23:46;;;;;;;5.63;3.60;;;21.00;89.70;;;;;;4979678;28;20713;-80
2023/05/03 07:26:11;;;;;;;4.57;4.07;;;20.90;89.20;;;;;;4975157;28;20208;-80
2023/05/03 07:28:37;;;;;;;5.40;3.97;;;20.80;89.50;;;;;;4993135;28;20186;-89
2023/05/03 07:31:03;;;;;;;8.20;3.80;;;20.70;90.20;;;;;;4990606;28;20303;-80
2023/05/03 07:33:30;;;;;;;7.77;3.53;;;20.90;90.70;;;;;;4985798;28;20218;-80
2023/05/03 07:35:56;;;;;;;4.73;3.50;;;21.10;90.80;;;;;;4992804;28;20448;-89
2023/05/03 07:38:21;;;;;;;4.13;3.73;;;21.20;90.10;;;;;;4974967;28;20474;-80
2023/05/03 07:40:47;;;;;;;6.70;3.43;;;21.10;89.60;;;;;;4973994;28;20283;-85
2023/05/03 07:43:15;;;;;;;4.37;3.30;;;21.10;90.10;;;;;;4975681;28;20579;-90
2023/05/03 07:45:41;;;;;;;4.10;3.10;;;21.10;89.50;;;;;;4975732;28;20298;-90
2023/05/03 07:48:07;;;;;;;8.90;3.67;;;21.10;89.80;;;;;;4988683;28;20441;-90
2023/05/03 07:50:33;;;;;;;4.50;4.07;;;21.20;90.00;;;;;;4992475;28;20653;-90
2023/05/03 07:52:59;;;;;;;6.13;3.77;;;21.20;89.90;;;;;;4972065;28;20542;-89
2023/05/03 07:55:25;;;;;;;3.73;3.33;;;21.10;90.20;;;;;;4977531;28;20195;-80
2023/05/03 07:57:52;;;;;;;3.43;3.13;;;21.10;89.50;;;;;;4979861;28;20212;-90
2023/05/03 08:00:17;;;;;;;6.70;3.80;;;21.10;90.20;;;;;;4984310;28;20430;-89
2023/05/03 08:02:43;;;;;;;4.50;3.33;;;21.20;90.50;;;;;;4973419;28;20410;-89
2023/05/03 08:05:12;;;;;;;4.20;3.33;;;21.30;90.20;;;;;;4985778;28;20239;-80
2023/05/03 08:07:38;;;;;;;4.40;4.00;;;21.40;90.80;;;;;;4977762;28;20452;-89
2023/05/03 08:10:04;;;;;;;3.70;3.30;;;21.60;90.80;;;;;;4989888;28;20849;-80
2023/05/03 08:12:29;;;;;;;3.97;3.67;;;21.70;90.10;;;;;;4974577;28;20805;-80
2023/05/03 08:14:55;;;;;;;5.00;4.50;;;21.60;90.30;;;;;;4978671;28;20430;-80
2023/05/03 08:17:22;;;;;;;4.30;3.57;;;21.60;90.20;;;;;;4988060;28;20243;-90
2023/05/03 08:19:49;;;;;;;5.07;3.90;;;21.60;90.50;;;;;;4974724;28;20422;-89
2023/05/03 08:22:15;;;;;;;6.20;3.83;;;21.80;90.60;;;;;;4979634;28;20481;-80
2023/05/03 08:24:42;;;;;;;6.20;3.80;;;21.90;90.30;;;;;;4984872;28;20446;-80
2023/05/03 08:27:08;;;;;;;5.70;4.13;;;22.00;90.70;;;;;;4971951;28;20461;-90
2023/05/03 08:29:36;;;;;;;6.23;3.50;;;22.10;90.80;;;;;;4981967;28;20788;-89
2023/05/03 08:32:03;;;;;;;4.93;4.53;;;22.30;91.50;;;;;;5002531;28;20441;-88
2023/05/03 08:34:29;;;;;;;4.17;3.77;;;22.30;90.70;;;;;;4997146;28;20437;-91
2023/05/03 08:36:56;;;;;;;5.10;3.60;;;22.20;90.50;;;;;;4979722;28;20472;-80
2023/05/03 08:39:23;;;;;;;3.87;3.57;;;22.20;90.30;;;;;;4985318;28;20493;-80
2023/05/03 08:41:50;;;;;;;3.87;3.50;;;22.20;90.70;;;;;;4976551;28;20446;-80
2023/05/03 08:44:24;;;;;;;6.33;4.30;;;22.20;91.10;;;;;;5000775;28;20949;-80
2023/05/03 08:46:50;;;;;;;4.90;4.33;;;22.30;90.80;;;;;;4996695;28;20453;-80
2023/05/03 08:49:17;;;;;;;4.40;3.90;;;22.50;91.10;;;;;;4986709;28;20485;-81
2023/05/03 08:51:48;;;;;;;6.23;3.57;;;22.70;90.60;;;;;;4978435;28;20541;-89
2023/05/03 08:54:16;;;;;;;4.70;3.70;;;22.70;90.50;;;;;;4997595;28;20438;-80
2023/05/03 08:56:43;;;;;;;9.27;4.57;;;22.70;91.20;;;;;;4989138;28;20606;-89
2023/05/03 08:59:12;;;;;;;5.20;3.97;;;22.80;91.20;;;;;;4990339;28;20437;-80
2023/05/03 09:01:42;;;;;;;5.83;3.73;;;23.10;90.50;;;;;;4975417;28;20501;-90
2023/05/03 09:04:08;;;;;;;6.23;3.87;;;23.10;90.10;;;;;;4987509;28;20504;-90
2023/05/03 09:06:35;;;;;;;6.60;4.10;;;23.10;90.50;;;;;;4985705;28;20451;-89
2023/05/03 09:09:07;;;;;;;5.00;3.70;;;23.10;90.00;;;;;;4980168;28;20458;-89
2023/05/03 09:11:33;;;;;;;5.20;3.53;;;23.00;90.30;;;;;;4976984;28;20465;-87
2023/05/03 09:14:17;;;;;;;4.07;3.63;;;23.10;90.70;;;;;;5000277;28;20431;-80
2023/05/03 09:16:45;;;;;;;4.13;3.60;;;23.20;90.20;;;;;;4981841;28;20453;-90
2023/05/03 09:19:12;;;;;;;5.03;4.07;;;23.30;90.50;;;;;;4984219;28;21434;-90
2023/05/03 09:21:39;;;;;;;3.93;3.50;;;23.30;90.50;;;;;;4982445;28;20812;-81
2023/05/03 09:24:19;;;;;;;5.17;3.63;;;23.30;90.30;;;;;;5000958;28;21309;-80
2023/05/03 09:26:47;;;;;;;4.80;4.30;;;23.30;90.50;;;;;;4985601;28;20466;-90
2023/05/03 09:29:35;;;;;;;5.20;4.03;;;23.20;89.30;;;;;;4988127;28;20533;-89
2023/05/03 09:32:04;;;;;;;6.10;4.00;;;23.00;89.80;;;;;;4988175;28;20970;-80
2023/05/03 09:34:34;;;;;;;4.13;3.60;;;23.00;89.90;;;;;;4995926;28;21862;-90
2023/05/03 09:37:00;;;;;;;4.33;3.90;;;23.00;90.00;;;;;;4986050;28;20469;-89
2023/05/03 09:39:26;;;;;;;4.20;3.80;;;22.90;89.70;;;;;;4985982;28;20799;-80
2023/05/03 09:41:52;;;;;;;4.60;3.47;;;22.80;89.00;;;;;;4990246;28;20461;-89
2023/05/03 09:44:18;;;;;;;3.63;3.33;;;22.70;89.10;;;;;;4989170;28;20437;-80
2023/05/03 09:47:03;;;;;;;3.30;3.03;;;22.70;89.10;;;;;;4990743;28;20550;-80
2023/05/03 09:49:32;;;;;;;6.83;4.10;;;22.80;88.70;;;;;;4980323;28;20254;-90
2023/05/03 09:52:00;;;;;;;4.60;3.33;;;22.90;88.60;;;;;;4981283;28;20455;-81
2023/05/03 09:54:26;;;;;;;5.83;4.20;;;23.10;88.60;;;;;;4991413;28;20417;-81
2023/05/03 09:56:54;;;;;;;3.33;3.03;;;23.20;88.70;;;;;;4983119;28;21030;-81
2023/05/03 09:59:20;;;;;;;6.50;4.57;;;23.10;87.60;;;;;;4986160;28;20437;-90
2023/05/03 10:01:46;;;;;;;3.90;3.60;;;22.90;88.40;;;;;;4981170;28;20477;-91
2023/05/03 10:04:16;;;;;;;3.93;3.50;;;22.90;89.10;;;;;;4982783;28;20487;-81
2023/05/03 10:06:47;;;;;;;5.73;3.57;;;22.90;89.30;;;;;;4996721;28;20462;-80
2023/05/03 10:09:25;;;;;;;4.03;3.70;;;22.90;89.30;;;;;;4980284;28;20426;-90
2023/05/03 10:11:53;;;;;;;4.90;3.73;;;22.90;90.20;;;;;;4980777;28;20454;-90
2023/05/03 10:14:21;;;;;;;4.30;4.00;;;22.90;89.00;;;;;;4977568;28;20854;-90
2023/05/03 10:16:59;;;;;;;6.17;3.50;;;22.70;88.80;;;;;;4982678;28;20453;-91
2023/05/03 10:19:46;;;;;;;4.43;4.03;;;22.70;89.50;;;;;;4982874;28;20453;-90
2023/05/03 10:22:12;;;;;;;3.47;3.17;;;22.70;88.90;;;;;;4981446;28;20450;-90
2023/05/03 10:25:01;;;;;;;4.67;4.10;;;22.60;89.00;;;;;;4980748;28;21006;-80
2023/05/03 10:27:45;;;;;;;4.27;3.80;;;22.70;89.50;;;;;;4985481;28;20634;-90
2023/05/03 10:30:35;;;;;;;4.40;3.70;;;22.90;90.00;;;;;;4983939;28;20461;-90
2023/05/03 10:33:13;;;;;;;4.30;3.90;;;23.00;89.30;;;;;;4975831;28;20436;-85
2023/05/03 10:35:49;;;;;;;3.77;3.47;;;23.00;88.90;;;;;;4971188;28;20541;-90
2023/05/03 10:38:18;;;;;;;4.80;3.80;;;22.90;88.50;;;;;;4983845;28;20628;-90
2023/05/03 10:40:44;;;;;;;5.20;4.20;;;22.90;88.50;;;;;;4997400;28;20459;-81
2023/05/03 10:43:36;;;;;;;3.83;3.50;;;23.00;89.60;;;;;;4995464;28;20438;-89
2023/05/03 10:46:07;;;;;;;4.00;3.60;;;23.10;89.80;;;;;;4980380;28;20518;-90
2023/05/03 10:48:34;;;;;;;4.30;3.83;;;23.20;89.80;;;;;;4987594;28;20431;-81
2023/05/03 10:51:32;;;;;;;5.27;3.80;;;23.10;89.50;;;;;;4981024;28;20450;-81
2023/05/03 10:53:58;;;;;;;3.70;3.40;;;23.00;88.60;;;;;;4988527;28;20436;-89
2023/05/03 10:56:24;;;;;;;4.20;3.80;;;23.20;89.10;;;;;;4979787;28;20484;-90
2023/05/03 10:58:50;;;;;;;5.97;3.80;;;23.10;87.50;;;;;;4986590;28;20519;-81
2023/05/03 11:01:17;;;;;;;4.90;3.37;;;23.10;87.90;;;;;;4981007;28;20203;-81
2023/05/03 11:04:09;;;;;;;4.20;3.57;;;23.20;87.20;;;;;;4980273;28;20488;-90
2023/05/03 11:06:39;;;;;;;4.70;3.60;;;23.20;88.00;;;;;;4967536;28;20564;-81
2023/05/03 11:09:07;;;;;;;5.57;3.47;;;23.10;87.10;;;;;;4979819;28;20784;-81
2023/05/03 11:11:35;;;;;;;8.33;3.30;;;23.00;87.50;;;;;;4984015;28;20473;-81
2023/05/03 11:14:03;;;;;;;4.53;3.40;;;23.10;87.60;;;;;;5000513;28;20440;-89
2023/05/03 11:16:28;;;;;;;3.53;3.23;;;22.90;86.60;;;;;;4988452;28;20536;-89
2023/05/03 11:18:55;;;;;;;4.70;3.20;;;22.90;86.40;;;;;;4994219;28;20473;-91
2023/05/03 11:21:21;;;;;;;3.93;3.20;;;23.00;86.10;;;;;;4986592;28;20209;-90
2023/05/03 11:23:47;;;;;;;4.43;4.03;;;22.90;85.30;;;;;;4981439;28;20657;-80
2023/05/03 11:26:13;;;;;;;3.53;3.33;;;23.00;86.50;;;;;;4977167;28;20453;-80
2023/05/03 11:28:40;;;;;;;4.20;3.80;;;23.10;86.20;;;;;;4987281;28;20191;-89
2023/05/03 11:31:06;;;;;;;7.23;3.20;;;23.20;86.50;;;;;;4984531;28;20215;-80
2023/05/03 11:33:34;;;;;;;3.80;3.30;;;23.30;85.80;;;;;;4977566;28;20526;-80
2023/05/03 11:36:04;;;;;;;5.40;3.50;;;23.10;85.50;;;;;;4989536;28;20463;-89
2023/05/03 11:38:31;;;;;;;3.60;3.30;;;23.00;85.50;;;;;;4984336;28;20475;-80
2023/05/03 11:40:58;;;;;;;6.60;3.30;;;23.10;85.60;;;;;;4979374;28;20479;-80
2023/05/03 11:43:25;;;;;;;6.03;3.90;;;23.10;86.00;;;;;;4987004;28;20436;-80
2023/05/03 11:45:56;;;;;;;3.40;3.10;;;23.30;87.00;;;;;;4990982;28;20961;-89
2023/05/03 11:48:22;;;;;;;3.73;3.43;;;23.50;85.50;;;;;;4985512;28;20476;-90
2023/05/03 11:50:56;;;;;;;4.60;3.20;;;23.40;83.60;;;;;;4981799;28;20490;-80
2023/05/03 11:53:25;;;;;;;3.37;3.07;;;23.40;84.00;;;;;;4992825;28;20687;-89
2023/05/03 11:55:52;;;;;;;3.53;3.23;;;23.40;83.20;;;;;;4982948;28;20616;-89
2023/05/03 11:58:23;;;;;;;4.43;2.87;;;23.20;82.10;;;;;;4975426;28;20999;-80
2023/05/03 12:00:51;;;;;;;7.40;3.33;;;23.10;82.50;;;;;;4982325;28;20556;-80
2023/05/03 12:03:20;;;;;;;2.97;2.73;;;23.10;83.50;;;;;;4988339;28;20527;-81
2023/05/03 12:05:47;;;;;;;6.07;3.10;;;23.10;83.60;;;;;;4990394;28;20450;-89
2023/05/03 12:08:14;;;;;;;2.77;2.57;;;23.20;83.50;;;;;;4988825;28;20960;-81
2023/05/03 12:10:40;;;;;;;4.70;4.10;;;23.30;82.50;;;;;;4977155;28;20462;-90
2023/05/03 12:13:06;;;;;;;3.23;2.40;;;23.40;82.90;;;;;;4985008;28;20472;-90
2023/05/03 12:15:36;;;;;;;3.90;2.33;;;23.30;82.50;;;;;;4980047;28;20508;-80
2023/05/03 12:18:09;;;;;;;3.03;2.73;;;23.20;82.10;;;;;;4981766;28;20243;-89
2023/05/03 12:20:37;;;;;;;3.30;3.00;;;23.30;82.10;;;;;;4982761;28;21024;-81
2023/05/03 12:23:07;;;;;;;3.43;3.13;;;23.30;81.70;;;;;;4976095;28;20479;-81
2023/05/03 12:25:35;;;;;;;3.40;3.20;;;23.30;81.30;;;;;;4988720;28;20500;-89
2023/05/03 12:28:03;;;;;;;3.67;2.97;;;23.30;81.10;;;;;;4973259;28;20445;-88
2023/05/03 12:30:29;;;;;;;5.10;3.23;;;23.30;80.70;;;;;;4985174;28;20508;-81
2023/05/03 12:32:55;;;;;;;3.13;2.83;;;23.30;81.00;;;;;;4992941;28;20779;-89
2023/05/03 12:35:21;;;;;;;3.97;2.27;;;23.20;80.00;;;;;;4980903;28;20453;-90
2023/05/03 12:37:48;;;;;;;4.53;3.00;;;23.20;79.30;;;;;;4991060;28;20514;-88
2023/05/03 12:40:15;;;;;;;3.70;2.90;;;23.30;77.60;;;;;;4984838;28;20453;-81
2023/05/03 12:42:42;;;;;;;2.60;2.40;;;23.30;77.50;;;;;;4981325;28;20841;-87
2023/05/03 12:45:08;;;;;;;4.63;3.00;;;23.20;77.50;;;;;;4978935;28;20503;-87
2023/05/03 12:47:37;;;;;;;4.50;3.10;;;23.20;77.00;;;;;;4975186;28;21012;-89